sensor_id;sensor_type;location;lat;lon;timestamp;temperature;humidity
10278;DHT22;5184;51.376;7.148;2023-04-01T00:00:27;9.00;99.90
10278;DHT22;5184;51.376;7.148;2023-04-01T00:02:54;9.00;99.90
10278;DHT22;5184;51.376;7.148;2023-04-01T00:05:22;9.00;99.90
10278;DHT22;5184;51.376;7.148;2023-04-01T00:07:49;9.00;99.90
10278;DHT22;5184;51.376;7.148;2023-04-01T00:10:16;9.00;99.90
10278;DHT22;5184;51.376;7.148;2023-04-01T00:12:43;9.00;99.90
10278;DHT22;5184;51.376;7.148;2023-04-01T00:15:10;9.00;99.90
10278;DHT22;5184;51.376;7.148;2023-04-01T00:17:36;9.00;99.90
10278;DHT22;5184;51.376;7.148;2023-04-01T00:20:04;9.00;99.90
10278;DHT22;5184;51.376;7.148;2023-04-01T00:22:30;9.00;99.90
10278;DHT22;5184;51.376;7.148;2023-04-01T00:24:56;9.00;99.90
10278;DHT22;5184;51.376;7.148;2023-04-01T00:27:23;9.00;99.90
10278;DHT22;5184;51.376;7.148;2023-04-01T00:29:50;9.00;99.90
10278;DHT22;5184;51.376;7.148;2023-04-01T00:32:17;9.00;99.90
10278;DHT22;5184;51.376;7.148;2023-04-01T00:34:44;9.00;99.90
10278;DHT22;5184;51.376;7.148;2023-04-01T00:37:11;8.90;99.90
10278;DHT22;5184;51.376;7.148;2023-04-01T00:39:38;9.00;99.90
10278;DHT22;5184;51.376;7.148;2023-04-01T00:42:04;9.00;99.90
10278;DHT22;5184;51.376;7.148;2023-04-01T00:44:32;9.00;99.90
10278;DHT22;5184;51.376;7.148;2023-04-01T00:46:58;8.90;99.90
10278;DHT22;5184;51.376;7.148;2023-04-01T00:49:27;8.90;99.90
10278;DHT22;5184;51.376;7.148;2023-04-01T00:51:52;8.90;99.90
10278;DHT22;5184;51.376;7.148;2023-04-01T00:54:19;8.90;99.90
10278;DHT22;5184;51.376;7.148;2023-04-01T00:56:49;8.90;99.90
10278;DHT22;5184;51.376;7.148;2023-04-01T00:59:17;8.90;99.90
10278;DHT22;5184;51.376;7.148;2023-04-01T01:01:43;8.90;99.90
10278;DHT22;5184;51.376;7.148;2023-04-01T01:04:30;9.10;99.90
10278;DHT22;5184;51.376;7.148;2023-04-01T01:08:05;8.80;99.90
10278;DHT22;5184;51.376;7.148;2023-04-01T01:09:42;8.80;99.90
10278;DHT22;5184;51.376;7.148;2023-04-01T01:12:12;8.80;99.90
10278;DHT22;5184;51.376;7.148;2023-04-01T01:17:22;8.80;99.90
10278;DHT22;5184;51.376;7.148;2023-04-01T01:19:50;8.80;99.90
10278;DHT22;5184;51.376;7.148;2023-04-01T01:22:20;8.80;99.90
10278;DHT22;5184;51.376;7.148;2023-04-01T01:24:51;8.80;99.90
10278;DHT22;5184;51.376;7.148;2023-04-01T01:27:17;8.80;99.90
10278;DHT22;5184;51.376;7.148;2023-04-01T01:29:59;8.80;99.90
10278;DHT22;5184;51.376;7.148;2023-04-01T01:33:06;8.80;99.90
10278;DHT22;5184;51.376;7.148;2023-04-01T01:35:37;8.80;99.90
10278;DHT22;5184;51.376;7.148;2023-04-01T01:38:05;8.80;99.90
10278;DHT22;5184;51.376;7.148;2023-04-01T01:40:31;8.80;99.90
10278;DHT22;5184;51.376;7.148;2023-04-01T01:42:58;8.80;99.90
10278;DHT22;5184;51.376;7.148;2023-04-01T01:45:24;8.80;99.90
10278;DHT22;5184;51.376;7.148;2023-04-01T01:47:50;8.80;99.90
10278;DHT22;5184;51.376;7.148;2023-04-01T01:50:17;8.80;99.90
10278;DHT22;5184;51.376;7.148;2023-04-01T01:52:43;8.80;99.90
10278;DHT22;5184;51.376;7.148;2023-04-01T01:57:48;8.80;99.90
10278;DHT22;5184;51.376;7.148;2023-04-01T02:02:54;8.80;99.90
10278;DHT22;5184;51.376;7.148;2023-04-01T02:05:22;8.80;99.90
10278;DHT22;5184;51.376;7.148;2023-04-01T02:07:51;8.80;99.90
10278;DHT22;5184;51.376;7.148;2023-04-01T02:10:15;8.80;99.90
10278;DHT22;5184;51.376;7.148;2023-04-01T02:12:42;8.80;99.90
10278;DHT22;5184;51.376;7.148;2023-04-01T02:15:09;8.80;99.90
10278;DHT22;5184;51.376;7.148;2023-04-01T02:17:38;8.80;99.90
10278;DHT22;5184;51.376;7.148;2023-04-01T02:20:06;8.80;99.90
10278;DHT22;5184;51.376;7.148;2023-04-01T02:22:34;8.80;99.90
10278;DHT22;5184;51.376;7.148;2023-04-01T02:25:04;8.80;99.90
10278;DHT22;5184;51.376;7.148;2023-04-01T02:27:29;8.70;99.90
10278;DHT22;5184;51.376;7.148;2023-04-01T02:29:56;8.80;99.90
10278;DHT22;5184;51.376;7.148;2023-04-01T02:32:23;8.80;99.90
10278;DHT22;5184;51.376;7.148;2023-04-01T02:34:51;8.80;99.90
10278;DHT22;5184;51.376;7.148;2023-04-01T02:37:18;8.80;99.90
10278;DHT22;5184;51.376;7.148;2023-04-01T02:39:45;8.80;99.90
10278;DHT22;5184;51.376;7.148;2023-04-01T02:42:13;8.70;99.90
10278;DHT22;5184;51.376;7.148;2023-04-01T02:44:40;8.70;99.90
10278;DHT22;5184;51.376;7.148;2023-04-01T02:47:08;8.70;99.90
10278;DHT22;5184;51.376;7.148;2023-04-01T02:49:34;8.70;99.90
10278;DHT22;5184;51.376;7.148;2023-04-01T02:52:01;8.70;99.90
10278;DHT22;5184;51.376;7.148;2023-04-01T02:54:27;8.70;99.90
10278;DHT22;5184;51.376;7.148;2023-04-01T02:56:54;8.70;99.90
10278;DHT22;5184;51.376;7.148;2023-04-01T02:59:21;8.70;99.90
10278;DHT22;5184;51.376;7.148;2023-04-01T03:01:47;8.60;99.90
10278;DHT22;5184;51.376;7.148;2023-04-01T03:04:14;8.60;99.90
10278;DHT22;5184;51.376;7.148;2023-04-01T03:06:41;8.60;99.90
10278;DHT22;5184;51.376;7.148;2023-04-01T03:09:08;8.60;99.90
10278;DHT22;5184;51.376;7.148;2023-04-01T03:11:36;8.60;99.90
10278;DHT22;5184;51.376;7.148;2023-04-01T03:14:03;8.60;99.90
10278;DHT22;5184;51.376;7.148;2023-04-01T03:16:30;8.60;99.90
10278;DHT22;5184;51.376;7.148;2023-04-01T03:18:58;8.60;99.90
10278;DHT22;5184;51.376;7.148;2023-04-01T03:21:25;8.60;99.90
10278;DHT22;5184;51.376;7.148;2023-04-01T03:23:53;8.60;99.90
10278;DHT22;5184;51.376;7.148;2023-04-01T03:26:20;8.60;99.90
10278;DHT22;5184;51.376;7.148;2023-04-01T03:28:47;8.50;99.90
10278;DHT22;5184;51.376;7.148;2023-04-01T03:31:13;8.60;99.90
10278;DHT22;5184;51.376;7.148;2023-04-01T03:33:40;8.60;99.90
10278;DHT22;5184;51.376;7.148;2023-04-01T03:36:06;8.50;99.90
10278;DHT22;5184;51.376;7.148;2023-04-01T03:38:33;8.50;99.90
10278;DHT22;5184;51.376;7.148;2023-04-01T03:41:00;8.50;99.90
10278;DHT22;5184;51.376;7.148;2023-04-01T03:43:26;8.50;99.90
10278;DHT22;5184;51.376;7.148;2023-04-01T03:45:53;8.50;99.90
10278;DHT22;5184;51.376;7.148;2023-04-01T03:48:20;8.50;99.90
10278;DHT22;5184;51.376;7.148;2023-04-01T03:50:48;8.50;99.90
10278;DHT22;5184;51.376;7.148;2023-04-01T03:53:15;8.50;99.90
10278;DHT22;5184;51.376;7.148;2023-04-01T03:55:42;8.50;99.90
10278;DHT22;5184;51.376;7.148;2023-04-01T03:58:10;8.50;99.90
10278;DHT22;5184;51.376;7.148;2023-04-01T04:00:36;8.50;99.90
10278;DHT22;5184;51.376;7.148;2023-04-01T04:03:03;8.50;99.90
10278;DHT22;5184;51.376;7.148;2023-04-01T04:05:29;8.50;99.90
10278;DHT22;5184;51.376;7.148;2023-04-01T04:07:56;8.50;99.90
10278;DHT22;5184;51.376;7.148;2023-04-01T04:10:23;8.50;99.90
10278;DHT22;5184;51.376;7.148;2023-04-01T04:12:49;8.50;99.90
10278;DHT22;5184;51.376;7.148;2023-04-01T04:15:16;8.50;99.90
10278;DHT22;5184;51.376;7.148;2023-04-01T04:17:44;8.60;99.90
10278;DHT22;5184;51.376;7.148;2023-04-01T04:20:11;8.50;99.90
10278;DHT22;5184;51.376;7.148;2023-04-01T04:22:39;8.60;99.90
10278;DHT22;5184;51.376;7.148;2023-04-01T04:25:06;8.60;99.90
10278;DHT22;5184;51.376;7.148;2023-04-01T04:27:34;8.60;99.90
10278;DHT22;5184;51.376;7.148;2023-04-01T04:30:02;8.60;99.90
10278;DHT22;5184;51.376;7.148;2023-04-01T04:32:29;8.60;99.90
10278;DHT22;5184;51.376;7.148;2023-04-01T04:34:55;8.60;99.90
10278;DHT22;5184;51.376;7.148;2023-04-01T04:37:22;8.60;99.90
10278;DHT22;5184;51.376;7.148;2023-04-01T04:39:48;8.60;99.90
10278;DHT22;5184;51.376;7.148;2023-04-01T04:42:15;8.60;99.90
10278;DHT22;5184;51.376;7.148;2023-04-01T04:44:42;8.60;99.90
10278;DHT22;5184;51.376;7.148;2023-04-01T04:47:08;8.60;99.90
10278;DHT22;5184;51.376;7.148;2023-04-01T04:49:35;8.60;99.90
10278;DHT22;5184;51.376;7.148;2023-04-01T04:52:01;8.60;99.90
10278;DHT22;5184;51.376;7.148;2023-04-01T04:54:29;8.60;99.90
10278;DHT22;5184;51.376;7.148;2023-04-01T04:56:56;8.60;99.90
10278;DHT22;5184;51.376;7.148;2023-04-01T04:59:23;8.60;99.90
10278;DHT22;5184;51.376;7.148;2023-04-01T05:01:51;8.60;99.90
10278;DHT22;5184;51.376;7.148;2023-04-01T05:04:18;8.60;99.90
10278;DHT22;5184;51.376;7.148;2023-04-01T05:06:46;8.60;99.90
10278;DHT22;5184;51.376;7.148;2023-04-01T05:09:13;8.70;99.90
10278;DHT22;5184;51.376;7.148;2023-04-01T05:11:40;8.60;99.90
10278;DHT22;5184;51.376;7.148;2023-04-01T05:14:11;8.60;99.90
10278;DHT22;5184;51.376;7.148;2023-04-01T05:16:34;8.70;99.90
10278;DHT22;5184;51.376;7.148;2023-04-01T05:19:01;8.70;99.90
10278;DHT22;5184;51.376;7.148;2023-04-01T05:21:28;8.70;99.90
10278;DHT22;5184;51.376;7.148;2023-04-01T05:23:55;8.70;99.90
10278;DHT22;5184;51.376;7.148;2023-04-01T05:26:22;8.60;99.90
10278;DHT22;5184;51.376;7.148;2023-04-01T05:28:48;8.70;99.90
10278;DHT22;5184;51.376;7.148;2023-04-01T05:31:15;8.70;99.90
10278;DHT22;5184;51.376;7.148;2023-04-01T05:33:41;8.70;99.90
10278;DHT22;5184;51.376;7.148;2023-04-01T05:36:10;8.70;99.90
10278;DHT22;5184;51.376;7.148;2023-04-01T05:38:37;8.70;99.90
10278;DHT22;5184;51.376;7.148;2023-04-01T05:41:04;8.70;99.90
10278;DHT22;5184;51.376;7.148;2023-04-01T05:43:32;8.70;99.90
10278;DHT22;5184;51.376;7.148;2023-04-01T05:45:59;8.70;99.90
10278;DHT22;5184;51.376;7.148;2023-04-01T05:48:26;8.70;99.90
10278;DHT22;5184;51.376;7.148;2023-04-01T05:50:54;8.70;99.90
10278;DHT22;5184;51.376;7.148;2023-04-01T05:53:21;8.70;99.90
10278;DHT22;5184;51.376;7.148;2023-04-01T05:55:48;8.80;99.90
10278;DHT22;5184;51.376;7.148;2023-04-01T05:58:15;8.70;99.90
10278;DHT22;5184;51.376;7.148;2023-04-01T06:00:43;8.80;99.90
10278;DHT22;5184;51.376;7.148;2023-04-01T06:03:10;8.80;99.90
10278;DHT22;5184;51.376;7.148;2023-04-01T06:05:39;8.70;99.90
10278;DHT22;5184;51.376;7.148;2023-04-01T06:08:08;8.80;99.90
10278;DHT22;5184;51.376;7.148;2023-04-01T06:10:55;8.80;99.90
10278;DHT22;5184;51.376;7.148;2023-04-01T06:13:25;8.80;99.90
10278;DHT22;5184;51.376;7.148;2023-04-01T06:15:59;8.80;99.90
10278;DHT22;5184;51.376;7.148;2023-04-01T06:21:00;8.80;99.90
10278;DHT22;5184;51.376;7.148;2023-04-01T06:24:53;8.80;99.90
10278;DHT22;5184;51.376;7.148;2023-04-01T06:26:36;8.80;99.90
10278;DHT22;5184;51.376;7.148;2023-04-01T06:32:37;8.80;99.90
10278;DHT22;5184;51.376;7.148;2023-04-01T06:35:17;8.80;99.90
10278;DHT22;5184;51.376;7.148;2023-04-01T06:37:41;8.80;99.90
10278;DHT22;5184;51.376;7.148;2023-04-01T06:40:11;8.80;99.90
10278;DHT22;5184;51.376;7.148;2023-04-01T06:42:38;8.80;99.90
10278;DHT22;5184;51.376;7.148;2023-04-01T06:45:07;8.80;99.90
10278;DHT22;5184;51.376;7.148;2023-04-01T06:47:56;8.80;99.90
10278;DHT22;5184;51.376;7.148;2023-04-01T06:50:26;8.80;99.90
10278;DHT22;5184;51.376;7.148;2023-04-01T06:55:29;8.80;99.90
10278;DHT22;5184;51.376;7.148;2023-04-01T06:57:55;8.80;99.90
10278;DHT22;5184;51.376;7.148;2023-04-01T07:00:31;8.70;99.90
10278;DHT22;5184;51.376;7.148;2023-04-01T07:03:39;8.80;99.90
10278;DHT22;5184;51.376;7.148;2023-04-01T07:05:47;8.80;99.90
10278;DHT22;5184;51.376;7.148;2023-04-01T07:08:18;8.90;99.90
10278;DHT22;5184;51.376;7.148;2023-04-01T07:10:53;8.80;99.90
10278;DHT22;5184;51.376;7.148;2023-04-01T07:13:23;8.90;99.90
10278;DHT22;5184;51.376;7.148;2023-04-01T07:15:54;8.90;99.90
10278;DHT22;5184;51.376;7.148;2023-04-01T07:18:19;8.90;99.90
10278;DHT22;5184;51.376;7.148;2023-04-01T07:20:45;8.90;99.90
10278;DHT22;5184;51.376;7.148;2023-04-01T07:23:23;8.90;99.90
10278;DHT22;5184;51.376;7.148;2023-04-01T07:25:53;9.00;99.90
10278;DHT22;5184;51.376;7.148;2023-04-01T07:28:19;9.00;99.90
10278;DHT22;5184;51.376;7.148;2023-04-01T07:30:58;9.00;99.90
10278;DHT22;5184;51.376;7.148;2023-04-01T07:33:24;9.00;99.90
10278;DHT22;5184;51.376;7.148;2023-04-01T07:36:01;9.00;99.90
10278;DHT22;5184;51.376;7.148;2023-04-01T07:38:40;9.00;99.90
10278;DHT22;5184;51.376;7.148;2023-04-01T07:41:13;9.00;99.90
10278;DHT22;5184;51.376;7.148;2023-04-01T07:43:51;9.00;99.90
10278;DHT22;5184;51.376;7.148;2023-04-01T07:47:01;9.00;99.90
10278;DHT22;5184;51.376;7.148;2023-04-01T07:49:11;9.00;99.90
10278;DHT22;5184;51.376;7.148;2023-04-01T07:51:41;9.00;99.90
10278;DHT22;5184;51.376;7.148;2023-04-01T07:59:37;9.00;99.90
10278;DHT22;5184;51.376;7.148;2023-04-01T08:02:36;9.00;99.90
10278;DHT22;5184;51.376;7.148;2023-04-01T08:07:44;9.10;99.90
10278;DHT22;5184;51.376;7.148;2023-04-01T08:10:11;9.10;99.90
10278;DHT22;5184;51.376;7.148;2023-04-01T08:12:40;9.10;99.90
10278;DHT22;5184;51.376;7.148;2023-04-01T08:15:21;9.10;99.90
10278;DHT22;5184;51.376;7.148;2023-04-01T08:17:56;9.10;99.90
10278;DHT22;5184;51.376;7.148;2023-04-01T08:20:39;9.10;99.90
10278;DHT22;5184;51.376;7.148;2023-04-01T08:25:56;9.10;99.90
10278;DHT22;5184;51.376;7.148;2023-04-01T08:28:27;9.10;99.90
10278;DHT22;5184;51.376;7.148;2023-04-01T08:30:55;9.10;99.90
10278;DHT22;5184;51.376;7.148;2023-04-01T08:33:24;9.10;99.90
10278;DHT22;5184;51.376;7.148;2023-04-01T08:35:56;9.10;99.90
10278;DHT22;5184;51.376;7.148;2023-04-01T08:38:24;9.10;99.90
10278;DHT22;5184;51.376;7.148;2023-04-01T08:41:17;9.10;99.90
10278;DHT22;5184;51.376;7.148;2023-04-01T08:47:19;9.00;99.90
10278;DHT22;5184;51.376;7.148;2023-04-01T08:52:30;9.00;99.90
10278;DHT22;5184;51.376;7.148;2023-04-01T08:57:52;9.30;99.90
10278;DHT22;5184;51.376;7.148;2023-04-01T09:03:51;9.20;99.90
10278;DHT22;5184;51.376;7.148;2023-04-01T09:09:06;9.30;99.90
10278;DHT22;5184;51.376;7.148;2023-04-01T09:14:23;9.20;99.90
10278;DHT22;5184;51.376;7.148;2023-04-01T09:17:00;9.20;99.90
10278;DHT22;5184;51.376;7.148;2023-04-01T09:22:48;9.20;99.90
10278;DHT22;5184;51.376;7.148;2023-04-01T09:25:32;9.20;99.90
10278;DHT22;5184;51.376;7.148;2023-04-01T09:27:57;9.20;99.90
10278;DHT22;5184;51.376;7.148;2023-04-01T09:30:32;9.20;99.90
10278;DHT22;5184;51.376;7.148;2023-04-01T09:33:46;9.20;99.90
10278;DHT22;5184;51.376;7.148;2023-04-01T09:38:47;9.30;99.90
10278;DHT22;5184;51.376;7.148;2023-04-01T09:41:48;9.30;99.90
10278;DHT22;5184;51.376;7.148;2023-04-01T09:47:06;9.20;99.90
10278;DHT22;5184;51.376;7.148;2023-04-01T09:49:42;9.30;99.90
10278;DHT22;5184;51.376;7.148;2023-04-01T09:52:31;9.30;99.90
10278;DHT22;5184;51.376;7.148;2023-04-01T09:55:17;9.40;99.90
10278;DHT22;5184;51.376;7.148;2023-04-01T09:58:07;9.40;99.90
10278;DHT22;5184;51.376;7.148;2023-04-01T10:00:48;9.40;99.90
10278;DHT22;5184;51.376;7.148;2023-04-01T10:03:25;9.40;99.90
10278;DHT22;5184;51.376;7.148;2023-04-01T10:08:50;9.60;99.90
10278;DHT22;5184;51.376;7.148;2023-04-01T10:11:45;9.70;99.90
10278;DHT22;5184;51.376;7.148;2023-04-01T10:14:33;9.70;99.90
10278;DHT22;5184;51.376;7.148;2023-04-01T10:17:00;9.70;99.90
10278;DHT22;5184;51.376;7.148;2023-04-01T10:19:37;9.90;99.90
10278;DHT22;5184;51.376;7.148;2023-04-01T10:22:06;10.00;99.90
10278;DHT22;5184;51.376;7.148;2023-04-01T10:24:50;10.00;99.90
10278;DHT22;5184;51.376;7.148;2023-04-01T10:27:29;9.90;99.90
10278;DHT22;5184;51.376;7.148;2023-04-01T10:30:06;9.90;99.90
10278;DHT22;5184;51.376;7.148;2023-04-01T10:33:03;9.90;99.90
10278;DHT22;5184;51.376;7.148;2023-04-01T10:35:38;9.80;99.90
10278;DHT22;5184;51.376;7.148;2023-04-01T10:43:32;9.90;99.90
10278;DHT22;5184;51.376;7.148;2023-04-01T10:46:13;9.90;99.90
10278;DHT22;5184;51.376;7.148;2023-04-01T10:51:25;9.80;99.90
10278;DHT22;5184;51.376;7.148;2023-04-01T10:54:07;9.80;99.90
10278;DHT22;5184;51.376;7.148;2023-04-01T10:56:34;9.80;99.90
10278;DHT22;5184;51.376;7.148;2023-04-01T10:59:27;9.80;99.90
10278;DHT22;5184;51.376;7.148;2023-04-01T11:04:46;9.80;99.90
10278;DHT22;5184;51.376;7.148;2023-04-01T11:10:42;9.80;99.90
10278;DHT22;5184;51.376;7.148;2023-04-01T11:13:06;9.90;99.90
10278;DHT22;5184;51.376;7.148;2023-04-01T11:16:41;9.80;99.90
10278;DHT22;5184;51.376;7.148;2023-04-01T11:18:39;9.80;99.90
10278;DHT22;5184;51.376;7.148;2023-04-01T11:21:28;9.80;99.90
10278;DHT22;5184;51.376;7.148;2023-04-01T11:26:52;9.60;99.90
10278;DHT22;5184;51.376;7.148;2023-04-01T11:29:41;9.60;99.90
10278;DHT22;5184;51.376;7.148;2023-04-01T11:32:17;9.60;99.90
10278;DHT22;5184;51.376;7.148;2023-04-01T11:34:43;9.60;99.90
10278;DHT22;5184;51.376;7.148;2023-04-01T11:40:36;9.60;99.90
10278;DHT22;5184;51.376;7.148;2023-04-01T11:43:01;9.70;99.90
10278;DHT22;5184;51.376;7.148;2023-04-01T11:45:35;9.80;99.90
10278;DHT22;5184;51.376;7.148;2023-04-01T11:48:24;9.80;99.90
10278;DHT22;5184;51.376;7.148;2023-04-01T11:53:36;9.80;99.90
10278;DHT22;5184;51.376;7.148;2023-04-01T11:56:12;9.80;99.90
10278;DHT22;5184;51.376;7.148;2023-04-01T12:01:27;9.80;99.90
10278;DHT22;5184;51.376;7.148;2023-04-01T12:04:00;9.80;99.90
10278;DHT22;5184;51.376;7.148;2023-04-01T12:06:41;9.70;99.90
10278;DHT22;5184;51.376;7.148;2023-04-01T12:11:57;9.60;99.90
10278;DHT22;5184;51.376;7.148;2023-04-01T12:14:36;9.70;99.90
10278;DHT22;5184;51.376;7.148;2023-04-01T12:17:24;9.70;99.90
10278;DHT22;5184;51.376;7.148;2023-04-01T12:20:16;9.70;99.90
10278;DHT22;5184;51.376;7.148;2023-04-01T12:22:46;9.80;99.90
10278;DHT22;5184;51.376;7.148;2023-04-01T12:25:22;9.90;99.90
10278;DHT22;5184;51.376;7.148;2023-04-01T12:27:59;9.90;99.90
10278;DHT22;5184;51.376;7.148;2023-04-01T12:30:27;9.90;99.90
10278;DHT22;5184;51.376;7.148;2023-04-01T12:33:04;9.90;99.90
10278;DHT22;5184;51.376;7.148;2023-04-01T12:35:48;9.80;99.90
10278;DHT22;5184;51.376;7.148;2023-04-01T12:38:31;9.80;99.90
10278;DHT22;5184;51.376;7.148;2023-04-01T12:44:13;9.90;99.90
10278;DHT22;5184;51.376;7.148;2023-04-01T12:46:27;9.90;99.90
10278;DHT22;5184;51.376;7.148;2023-04-01T12:49:00;9.90;99.90
10278;DHT22;5184;51.376;7.148;2023-04-01T12:51:47;9.90;99.90
10278;DHT22;5184;51.376;7.148;2023-04-01T12:54:43;9.80;99.90
10278;DHT22;5184;51.376;7.148;2023-04-01T13:02:30;9.90;99.90
10278;DHT22;5184;51.376;7.148;2023-04-01T13:07:40;10.00;99.90
10278;DHT22;5184;51.376;7.148;2023-04-01T13:10:11;9.90;99.90
10278;DHT22;5184;51.376;7.148;2023-04-01T13:12:39;10.00;99.90
10278;DHT22;5184;51.376;7.148;2023-04-01T13:15:07;10.00;99.90
10278;DHT22;5184;51.376;7.148;2023-04-01T13:17:37;10.10;99.90
10278;DHT22;5184;51.376;7.148;2023-04-01T13:25:34;10.10;99.90
10278;DHT22;5184;51.376;7.148;2023-04-01T13:28:16;10.10;99.90
10278;DHT22;5184;51.376;7.148;2023-04-01T13:30:55;10.10;99.90
10278;DHT22;5184;51.376;7.148;2023-04-01T13:33:42;10.00;99.90
10278;DHT22;5184;51.376;7.148;2023-04-01T13:38:56;10.00;99.90
10278;DHT22;5184;51.376;7.148;2023-04-01T13:41:31;10.00;99.90
10278;DHT22;5184;51.376;7.148;2023-04-01T13:45:15;9.80;99.90
10278;DHT22;5184;51.376;7.148;2023-04-01T13:47:28;9.70;99.90
10278;DHT22;5184;51.376;7.148;2023-04-01T13:52:56;9.70;99.90
10278;DHT22;5184;51.376;7.148;2023-04-01T13:58:26;9.70;99.90
10278;DHT22;5184;51.376;7.148;2023-04-01T14:00:54;9.60;99.90
10278;DHT22;5184;51.376;7.148;2023-04-01T14:03:50;9.70;99.90
10278;DHT22;5184;51.376;7.148;2023-04-01T14:06:20;9.70;99.90
10278;DHT22;5184;51.376;7.148;2023-04-01T14:11:38;9.70;99.90
10278;DHT22;5184;51.376;7.148;2023-04-01T14:16:39;9.70;99.90
10278;DHT22;5184;51.376;7.148;2023-04-01T14:21:46;9.70;99.90
10278;DHT22;5184;51.376;7.148;2023-04-01T14:29:51;9.70;99.90
10278;DHT22;5184;51.376;7.148;2023-04-01T14:32:23;9.70;99.90
10278;DHT22;5184;51.376;7.148;2023-04-01T14:35:09;9.70;99.90
10278;DHT22;5184;51.376;7.148;2023-04-01T14:37:39;9.60;99.90
10278;DHT22;5184;51.376;7.148;2023-04-01T14:48:23;9.60;99.90
10278;DHT22;5184;51.376;7.148;2023-04-01T14:50:46;9.60;99.90
10278;DHT22;5184;51.376;7.148;2023-04-01T14:53:23;9.60;99.90
10278;DHT22;5184;51.376;7.148;2023-04-01T14:55:58;9.60;99.90
10278;DHT22;5184;51.376;7.148;2023-04-01T14:58:25;9.60;99.90
10278;DHT22;5184;51.376;7.148;2023-04-01T15:01:07;9.60;99.90
10278;DHT22;5184;51.376;7.148;2023-04-01T15:06:27;9.60;99.90
10278;DHT22;5184;51.376;7.148;2023-04-01T15:08:55;9.60;99.90
10278;DHT22;5184;51.376;7.148;2023-04-01T15:11:26;9.60;99.90
10278;DHT22;5184;51.376;7.148;2023-04-01T15:16:49;9.60;99.90
10278;DHT22;5184;51.376;7.148;2023-04-01T15:19:30;9.60;99.90
10278;DHT22;5184;51.376;7.148;2023-04-01T15:27:16;9.60;99.90
10278;DHT22;5184;51.376;7.148;2023-04-01T15:29:53;9.60;99.90
10278;DHT22;5184;51.376;7.148;2023-04-01T15:32:42;9.70;99.90
10278;DHT22;5184;51.376;7.148;2023-04-01T15:35:23;9.60;99.90
10278;DHT22;5184;51.376;7.148;2023-04-01T15:38:06;9.60;99.90
10278;DHT22;5184;51.376;7.148;2023-04-01T15:40:51;9.70;99.90
10278;DHT22;5184;51.376;7.148;2023-04-01T15:43:20;9.70;99.90
10278;DHT22;5184;51.376;7.148;2023-04-01T15:45:55;9.70;99.90
10278;DHT22;5184;51.376;7.148;2023-04-01T15:48:31;9.70;99.90
10278;DHT22;5184;51.376;7.148;2023-04-01T15:51:29;9.80;99.90
10278;DHT22;5184;51.376;7.148;2023-04-01T15:56:16;9.70;99.90
10278;DHT22;5184;51.376;7.148;2023-04-01T16:01:38;9.70;99.90
10278;DHT22;5184;51.376;7.148;2023-04-01T16:04:17;9.70;99.90
10278;DHT22;5184;51.376;7.148;2023-04-01T16:06:45;9.70;99.90
10278;DHT22;5184;51.376;7.148;2023-04-01T16:09:22;9.70;99.90
10278;DHT22;5184;51.376;7.148;2023-04-01T16:11:53;9.70;99.90
10278;DHT22;5184;51.376;7.148;2023-04-01T16:14:42;9.70;99.90
10278;DHT22;5184;51.376;7.148;2023-04-01T16:17:14;9.70;99.90
10278;DHT22;5184;51.376;7.148;2023-04-01T16:19:45;9.70;99.90
10278;DHT22;5184;51.376;7.148;2023-04-01T16:27:29;9.60;99.90
10278;DHT22;5184;51.376;7.148;2023-04-01T16:30:00;9.60;99.90
10278;DHT22;5184;51.376;7.148;2023-04-01T16:32:34;9.50;99.90
10278;DHT22;5184;51.376;7.148;2023-04-01T16:35:04;9.50;99.90
10278;DHT22;5184;51.376;7.148;2023-04-01T16:37:32;9.50;99.90
10278;DHT22;5184;51.376;7.148;2023-04-01T16:40:23;9.50;99.90
10278;DHT22;5184;51.376;7.148;2023-04-01T16:42:51;9.50;99.90
10278;DHT22;5184;51.376;7.148;2023-04-01T16:45:26;9.50;99.90
10278;DHT22;5184;51.376;7.148;2023-04-01T16:50:39;9.50;99.90
10278;DHT22;5184;51.376;7.148;2023-04-01T16:53:02;9.50;99.90
10278;DHT22;5184;51.376;7.148;2023-04-01T16:56:07;9.50;99.90
10278;DHT22;5184;51.376;7.148;2023-04-01T16:58:18;9.50;99.90
10278;DHT22;5184;51.376;7.148;2023-04-01T17:00:41;9.60;99.90
10278;DHT22;5184;51.376;7.148;2023-04-01T17:03:26;9.50;99.90
10278;DHT22;5184;51.376;7.148;2023-04-01T17:05:59;9.50;99.90
10278;DHT22;5184;51.376;7.148;2023-04-01T17:08:32;9.50;99.90
10278;DHT22;5184;51.376;7.148;2023-04-01T17:10:57;9.50;99.90
10278;DHT22;5184;51.376;7.148;2023-04-01T17:13:29;9.50;99.90
10278;DHT22;5184;51.376;7.148;2023-04-01T17:16:10;9.50;99.90
10278;DHT22;5184;51.376;7.148;2023-04-01T17:23:52;9.50;99.90
10278;DHT22;5184;51.376;7.148;2023-04-01T17:26:26;9.50;99.90
10278;DHT22;5184;51.376;7.148;2023-04-01T17:28:52;9.50;99.90
10278;DHT22;5184;51.376;7.148;2023-04-01T17:33:53;9.50;99.90
10278;DHT22;5184;51.376;7.148;2023-04-01T17:36:21;9.40;99.90
10278;DHT22;5184;51.376;7.148;2023-04-01T17:41:48;9.40;99.90
10278;DHT22;5184;51.376;7.148;2023-04-01T17:44:18;9.50;99.90
10278;DHT22;5184;51.376;7.148;2023-04-01T17:46:59;9.40;99.90
10278;DHT22;5184;51.376;7.148;2023-04-01T17:49:31;9.40;99.90
10278;DHT22;5184;51.376;7.148;2023-04-01T17:52:19;9.40;99.90
10278;DHT22;5184;51.376;7.148;2023-04-01T17:54:46;9.40;99.90
10278;DHT22;5184;51.376;7.148;2023-04-01T18:00:40;9.40;99.90
10278;DHT22;5184;51.376;7.148;2023-04-01T18:02:57;9.40;99.90
10278;DHT22;5184;51.376;7.148;2023-04-01T18:05:24;9.40;99.90
10278;DHT22;5184;51.376;7.148;2023-04-01T18:07:52;9.40;99.90
10278;DHT22;5184;51.376;7.148;2023-04-01T18:13:48;9.40;99.90
10278;DHT22;5184;51.376;7.148;2023-04-01T18:16:20;9.40;99.90
10278;DHT22;5184;51.376;7.148;2023-04-01T18:18:50;9.40;99.90
10278;DHT22;5184;51.376;7.148;2023-04-01T18:21:26;9.30;99.90
10278;DHT22;5184;51.376;7.148;2023-04-01T18:23:58;9.40;99.90
10278;DHT22;5184;51.376;7.148;2023-04-01T18:26:29;9.40;99.90
10278;DHT22;5184;51.376;7.148;2023-04-01T18:28:57;9.40;99.90
10278;DHT22;5184;51.376;7.148;2023-04-01T18:31:24;9.30;99.90
10278;DHT22;5184;51.376;7.148;2023-04-01T18:33:56;9.30;99.90
10278;DHT22;5184;51.376;7.148;2023-04-01T18:39:07;9.40;99.90
10278;DHT22;5184;51.376;7.148;2023-04-01T18:41:32;9.30;99.90
10278;DHT22;5184;51.376;7.148;2023-04-01T18:44:12;9.30;99.90
10278;DHT22;5184;51.376;7.148;2023-04-01T18:46:39;9.30;99.90
10278;DHT22;5184;51.376;7.148;2023-04-01T18:49:17;9.30;99.90
10278;DHT22;5184;51.376;7.148;2023-04-01T18:51:46;9.30;99.90
10278;DHT22;5184;51.376;7.148;2023-04-01T18:54:21;9.30;99.90
10278;DHT22;5184;51.376;7.148;2023-04-01T18:56:44;9.30;99.90
10278;DHT22;5184;51.376;7.148;2023-04-01T19:01:52;9.30;99.90
10278;DHT22;5184;51.376;7.148;2023-04-01T19:04:22;9.30;99.90
10278;DHT22;5184;51.376;7.148;2023-04-01T19:06:50;9.30;99.90
10278;DHT22;5184;51.376;7.148;2023-04-01T19:09:21;9.30;99.90
10278;DHT22;5184;51.376;7.148;2023-04-01T19:11:50;9.30;99.90
10278;DHT22;5184;51.376;7.148;2023-04-01T19:14:19;9.30;99.90
10278;DHT22;5184;51.376;7.148;2023-04-01T19:17:09;9.30;99.90
10278;DHT22;5184;51.376;7.148;2023-04-01T19:20:00;9.30;99.90
10278;DHT22;5184;51.376;7.148;2023-04-01T19:22:39;9.30;99.90
10278;DHT22;5184;51.376;7.148;2023-04-01T19:27:37;9.30;99.90
10278;DHT22;5184;51.376;7.148;2023-04-01T19:35:23;9.30;99.90
10278;DHT22;5184;51.376;7.148;2023-04-01T19:37:50;9.30;99.90
10278;DHT22;5184;51.376;7.148;2023-04-01T19:40:36;9.30;99.90